Tylersburg, Pennsylvania
Current Conditions -  °F | °C
As of 6:53 PM on Saturday 22 Nov 2014 (Local Time) from KDUJ Reporting Station
Overcast Overcast  
Wind Chill: 33°   Ceiling: 4500
Heat Index: 39°   Visibility: 10mi
Dew Point: 31°   Wind: 9mph
Humidity: 73%   Direction: 220°SW
Pressure: 30.1"   Gusts: NA
Location:  41.38°N, 79.32°W
Report Text: KDUJ 222353Z AUTO 22008KT 10SM OVC045 04/M01 A3010 RMK AO2 SLP213 60001 I6003 T00391006 10039 20000 56009
Loading
Personal Weather Stations






























Interactive Weather Map New forecast layout! Learn more

10-Day Weather Forecast

Advertisements
Track Severe Weather on mobile